Terminal Aerodrome Forecast
Issued by NWS

Home | Current Version | Previous Version | Text Only | Print | Product List | Glossary On
Versions: 1 2 3 4 5 6 7 8 9 10 11 12 13 14 15 16 17 18 19 20 21 22 23 24 25 26 27 28 29 30 31
000
FTUS43 KLSX 242000 AAA
TAFSUS
TAF AMD
KSUS 242040Z 2421/2518 12015G22KT P6SM SCT010 BKN080
      TEMPO 2421/2422 BKN010
     FM250300 15013G22KT 5SM -SHRA OVC015
      TEMPO 2503/2505 2SM TSRA OVC006CB
     FM250600 24012G21KT P6SM BKN015
     FM250900 26009KT 4SM BR SCT015
     FM251500 23005KT P6SM SCT250=

USA.gov is the U.S. government's official web portal to all federal, state and local government web resources and services.